sensor_id;sensor_type;location;lat;lon;timestamp;temperature;humidity
77839;SHT31;67034;43.226;27.932;2024-03-25T00:00:24;11.93;66.45
77839;SHT31;67034;43.226;27.932;2024-03-25T00:02:52;11.72;66.94
77839;SHT31;67034;43.226;27.932;2024-03-25T00:05:17;11.25;68.29
77839;SHT31;67034;43.226;27.932;2024-03-25T00:07:52;10.93;69.29
77839;SHT31;67034;43.226;27.932;2024-03-25T00:10:18;10.70;70.08
77839;SHT31;67034;43.226;27.932;2024-03-25T00:12:46;10.57;70.77
77839;SHT31;67034;43.226;27.932;2024-03-25T00:15:11;10.42;71.50
77839;SHT31;67034;43.226;27.932;2024-03-25T00:17:37;10.38;71.89
77839;SHT31;67034;43.226;27.932;2024-03-25T00:20:06;10.30;72.12
77839;SHT31;67034;43.226;27.932;2024-03-25T00:22:35;10.23;72.30
77839;SHT31;67034;43.226;27.932;2024-03-25T00:25:00;10.19;72.45
77839;SHT31;67034;43.226;27.932;2024-03-25T00:27:26;10.15;72.92
77839;SHT31;67034;43.226;27.932;2024-03-25T00:29:52;10.16;72.87
77839;SHT31;67034;43.226;27.932;2024-03-25T00:32:18;10.16;72.73
77839;SHT31;67034;43.226;27.932;2024-03-25T00:34:44;10.16;72.78
77839;SHT31;67034;43.226;27.932;2024-03-25T00:37:11;10.09;72.70
77839;SHT31;67034;43.226;27.932;2024-03-25T00:39:37;10.08;72.99
77839;SHT31;67034;43.226;27.932;2024-03-25T00:42:03;10.12;72.87
77839;SHT31;67034;43.226;27.932;2024-03-25T00:44:29;10.01;72.97
77839;SHT31;67034;43.226;27.932;2024-03-25T00:46:55;9.99;73.02
77839;SHT31;67034;43.226;27.932;2024-03-25T00:49:21;9.92;72.90
77839;SHT31;67034;43.226;27.932;2024-03-25T00:51:47;9.88;72.96
77839;SHT31;67034;43.226;27.932;2024-03-25T00:54:14;9.82;72.81
77839;SHT31;67034;43.226;27.932;2024-03-25T00:56:40;9.73;72.71
77839;SHT31;67034;43.226;27.932;2024-03-25T00:59:05;9.58;72.94
77839;SHT31;67034;43.226;27.932;2024-03-25T01:01:31;9.47;73.20
77839;SHT31;67034;43.226;27.932;2024-03-25T01:03:57;9.40;73.59
77839;SHT31;67034;43.226;27.932;2024-03-25T01:06:24;9.32;74.15
77839;SHT31;67034;43.226;27.932;2024-03-25T01:08:50;9.42;73.64
77839;SHT31;67034;43.226;27.932;2024-03-25T01:11:17;9.37;73.93
77839;SHT31;67034;43.226;27.932;2024-03-25T01:13:43;9.43;73.66
77839;SHT31;67034;43.226;27.932;2024-03-25T01:16:09;9.51;73.33
77839;SHT31;67034;43.226;27.932;2024-03-25T01:18:35;9.54;73.32
77839;SHT31;67034;43.226;27.932;2024-03-25T01:21:01;9.65;73.15
77839;SHT31;67034;43.226;27.932;2024-03-25T01:23:27;9.74;72.89
77839;SHT31;67034;43.226;27.932;2024-03-25T01:25:52;9.87;72.71
77839;SHT31;67034;43.226;27.932;2024-03-25T01:28:20;9.88;72.55
77839;SHT31;67034;43.226;27.932;2024-03-25T01:30:45;9.94;72.48
77839;SHT31;67034;43.226;27.932;2024-03-25T01:33:11;9.94;72.06
77839;SHT31;67034;43.226;27.932;2024-03-25T01:35:37;9.82;72.47
77839;SHT31;67034;43.226;27.932;2024-03-25T01:38:03;9.88;72.32
77839;SHT31;67034;43.226;27.932;2024-03-25T01:40:29;9.99;72.16
77839;SHT31;67034;43.226;27.932;2024-03-25T01:42:55;9.98;71.86
77839;SHT31;67034;43.226;27.932;2024-03-25T01:45:22;9.92;72.04
77839;SHT31;67034;43.226;27.932;2024-03-25T01:47:48;9.88;72.13
77839;SHT31;67034;43.226;27.932;2024-03-25T01:50:14;9.75;72.42
77839;SHT31;67034;43.226;27.932;2024-03-25T01:52:41;9.71;72.58
77839;SHT31;67034;43.226;27.932;2024-03-25T01:55:09;9.64;72.88
77839;SHT31;67034;43.226;27.932;2024-03-25T01:57:38;9.69;72.95
77839;SHT31;67034;43.226;27.932;2024-03-25T02:00:06;9.71;72.95
77839;SHT31;67034;43.226;27.932;2024-03-25T02:02:33;9.77;72.92
77839;SHT31;67034;43.226;27.932;2024-03-25T02:05:01;9.95;72.86
77839;SHT31;67034;43.226;27.932;2024-03-25T02:07:28;10.09;72.20
77839;SHT31;67034;43.226;27.932;2024-03-25T02:09:55;10.09;71.93
77839;SHT31;67034;43.226;27.932;2024-03-25T02:12:22;10.01;72.21
77839;SHT31;67034;43.226;27.932;2024-03-25T02:14:48;10.05;72.23
77839;SHT31;67034;43.226;27.932;2024-03-25T02:17:13;9.94;72.32
77839;SHT31;67034;43.226;27.932;2024-03-25T02:19:41;9.91;72.47
77839;SHT31;67034;43.226;27.932;2024-03-25T02:22:07;9.82;72.56
77839;SHT31;67034;43.226;27.932;2024-03-25T02:24:33;9.78;72.98
77839;SHT31;67034;43.226;27.932;2024-03-25T02:27:01;9.75;73.22
77839;SHT31;67034;43.226;27.932;2024-03-25T02:29:33;9.78;73.30
77839;SHT31;67034;43.226;27.932;2024-03-25T02:31:58;9.91;73.08
77839;SHT31;67034;43.226;27.932;2024-03-25T02:34:24;9.95;72.98
77839;SHT31;67034;43.226;27.932;2024-03-25T02:36:50;10.02;72.91
77839;SHT31;67034;43.226;27.932;2024-03-25T02:39:16;10.02;72.80
77839;SHT31;67034;43.226;27.932;2024-03-25T02:41:42;10.01;72.77
77839;SHT31;67034;43.226;27.932;2024-03-25T02:44:09;9.98;72.90
77839;SHT31;67034;43.226;27.932;2024-03-25T02:46:35;9.97;73.03
77839;SHT31;67034;43.226;27.932;2024-03-25T02:49:00;9.98;72.91
77839;SHT31;67034;43.226;27.932;2024-03-25T02:51:26;9.98;72.67
77839;SHT31;67034;43.226;27.932;2024-03-25T02:53:52;9.87;72.76
77839;SHT31;67034;43.226;27.932;2024-03-25T02:56:18;9.82;72.93
77839;SHT31;67034;43.226;27.932;2024-03-25T02:58:43;9.75;72.95
77839;SHT31;67034;43.226;27.932;2024-03-25T03:01:10;9.67;73.12
77839;SHT31;67034;43.226;27.932;2024-03-25T03:03:36;9.58;73.15
77839;SHT31;67034;43.226;27.932;2024-03-25T03:06:02;9.47;73.42
77839;SHT31;67034;43.226;27.932;2024-03-25T03:08:28;9.48;73.70
77839;SHT31;67034;43.226;27.932;2024-03-25T03:10:53;9.40;73.85
77839;SHT31;67034;43.226;27.932;2024-03-25T03:13:19;9.42;74.02
77839;SHT31;67034;43.226;27.932;2024-03-25T03:15:45;9.27;74.22
77839;SHT31;67034;43.226;27.932;2024-03-25T03:18:12;9.11;74.63
77839;SHT31;67034;43.226;27.932;2024-03-25T03:20:38;9.12;75.00
77839;SHT31;67034;43.226;27.932;2024-03-25T03:23:04;9.08;75.31
77839;SHT31;67034;43.226;27.932;2024-03-25T03:25:29;8.93;75.52
77839;SHT31;67034;43.226;27.932;2024-03-25T03:27:56;8.89;75.75
77839;SHT31;67034;43.226;27.932;2024-03-25T03:30:22;8.86;75.96
77839;SHT31;67034;43.226;27.932;2024-03-25T03:32:47;8.88;76.13
77839;SHT31;67034;43.226;27.932;2024-03-25T03:35:14;8.95;76.38
77839;SHT31;67034;43.226;27.932;2024-03-25T03:37:40;9.05;76.40
77839;SHT31;67034;43.226;27.932;2024-03-25T03:40:07;9.02;76.48
77839;SHT31;67034;43.226;27.932;2024-03-25T03:42:33;8.99;76.69
77839;SHT31;67034;43.226;27.932;2024-03-25T03:44:59;9.06;77.11
77839;SHT31;67034;43.226;27.932;2024-03-25T03:47:25;9.08;77.08
77839;SHT31;67034;43.226;27.932;2024-03-25T03:49:51;8.99;77.30
77839;SHT31;67034;43.226;27.932;2024-03-25T03:52:18;8.89;77.63
77839;SHT31;67034;43.226;27.932;2024-03-25T03:54:44;8.95;78.00
77839;SHT31;67034;43.226;27.932;2024-03-25T03:57:10;9.02;78.15
77839;SHT31;67034;43.226;27.932;2024-03-25T03:59:35;9.08;78.41
77839;SHT31;67034;43.226;27.932;2024-03-25T04:02:01;9.06;78.56
77839;SHT31;67034;43.226;27.932;2024-03-25T04:04:27;9.03;78.66
77839;SHT31;67034;43.226;27.932;2024-03-25T04:06:52;9.05;78.82
77839;SHT31;67034;43.226;27.932;2024-03-25T04:09:20;9.08;78.96
77839;SHT31;67034;43.226;27.932;2024-03-25T04:11:45;9.09;78.97
77839;SHT31;67034;43.226;27.932;2024-03-25T04:14:11;9.13;78.91
77839;SHT31;67034;43.226;27.932;2024-03-25T04:16:37;9.16;79.07
77839;SHT31;67034;43.226;27.932;2024-03-25T04:19:02;9.15;78.88
77839;SHT31;67034;43.226;27.932;2024-03-25T04:21:28;9.13;79.07
77839;SHT31;67034;43.226;27.932;2024-03-25T04:23:54;9.16;79.13
77839;SHT31;67034;43.226;27.932;2024-03-25T04:26:21;9.12;79.04
77839;SHT31;67034;43.226;27.932;2024-03-25T04:28:46;9.09;79.10
77839;SHT31;67034;43.226;27.932;2024-03-25T04:31:13;9.13;79.20
77839;SHT31;67034;43.226;27.932;2024-03-25T04:33:38;9.16;79.22
77839;SHT31;67034;43.226;27.932;2024-03-25T04:36:04;9.24;79.14
77839;SHT31;67034;43.226;27.932;2024-03-25T04:38:30;9.23;79.16
77839;SHT31;67034;43.226;27.932;2024-03-25T04:40:56;9.23;79.09
77839;SHT31;67034;43.226;27.932;2024-03-25T04:43:23;9.26;78.98
77839;SHT31;67034;43.226;27.932;2024-03-25T04:45:49;9.27;78.97
77839;SHT31;67034;43.226;27.932;2024-03-25T04:48:14;9.30;78.91
77839;SHT31;67034;43.226;27.932;2024-03-25T04:50:40;9.27;78.75
77839;SHT31;67034;43.226;27.932;2024-03-25T04:53:06;9.22;78.84
77839;SHT31;67034;43.226;27.932;2024-03-25T04:55:31;9.27;79.00
77839;SHT31;67034;43.226;27.932;2024-03-25T04:57:57;9.27;78.99
77839;SHT31;67034;43.226;27.932;2024-03-25T05:00:24;9.30;78.72
77839;SHT31;67034;43.226;27.932;2024-03-25T05:02:50;9.22;78.79
77839;SHT31;67034;43.226;27.932;2024-03-25T05:05:15;9.13;78.95
77839;SHT31;67034;43.226;27.932;2024-03-25T05:07:41;9.09;78.91
77839;SHT31;67034;43.226;27.932;2024-03-25T05:10:07;9.06;78.90
77839;SHT31;67034;43.226;27.932;2024-03-25T05:12:33;9.06;78.85
77839;SHT31;67034;43.226;27.932;2024-03-25T05:14:58;9.02;78.84
77839;SHT31;67034;43.226;27.932;2024-03-25T05:17:26;9.06;78.85
77839;SHT31;67034;43.226;27.932;2024-03-25T05:19:51;9.03;78.71
77839;SHT31;67034;43.226;27.932;2024-03-25T05:22:17;9.01;78.79
77839;SHT31;67034;43.226;27.932;2024-03-25T05:24:43;8.91;78.79
77839;SHT31;67034;43.226;27.932;2024-03-25T05:27:08;8.85;78.94
77839;SHT31;67034;43.226;27.932;2024-03-25T05:29:34;8.81;78.87
77839;SHT31;67034;43.226;27.932;2024-03-25T05:32:00;8.75;79.01
77839;SHT31;67034;43.226;27.932;2024-03-25T05:34:28;8.75;79.18
77839;SHT31;67034;43.226;27.932;2024-03-25T05:36:55;8.72;79.19
77839;SHT31;67034;43.226;27.932;2024-03-25T05:39:20;8.69;79.29
77839;SHT31;67034;43.226;27.932;2024-03-25T05:41:46;8.74;79.41
77839;SHT31;67034;43.226;27.932;2024-03-25T05:44:12;8.71;79.37
77839;SHT31;67034;43.226;27.932;2024-03-25T05:46:38;8.71;79.41
77839;SHT31;67034;43.226;27.932;2024-03-25T05:49:04;8.63;79.13
77839;SHT31;67034;43.226;27.932;2024-03-25T05:51:31;8.60;79.29
77839;SHT31;67034;43.226;27.932;2024-03-25T05:53:58;8.57;79.24
77839;SHT31;67034;43.226;27.932;2024-03-25T05:56:24;8.51;79.27
77839;SHT31;67034;43.226;27.932;2024-03-25T05:58:55;8.50;79.42
77839;SHT31;67034;43.226;27.932;2024-03-25T06:01:21;8.41;79.28
77839;SHT31;67034;43.226;27.932;2024-03-25T06:03:47;8.44;79.30
77839;SHT31;67034;43.226;27.932;2024-03-25T06:06:12;8.43;79.19
77839;SHT31;67034;43.226;27.932;2024-03-25T06:08:40;8.43;79.22
77839;SHT31;67034;43.226;27.932;2024-03-25T06:11:05;8.44;79.13
77839;SHT31;67034;43.226;27.932;2024-03-25T06:13:32;8.55;79.50
77839;SHT31;67034;43.226;27.932;2024-03-25T06:15:58;8.61;78.99
77839;SHT31;67034;43.226;27.932;2024-03-25T06:18:23;8.65;78.78
77839;SHT31;67034;43.226;27.932;2024-03-25T06:20:49;8.65;78.69
77839;SHT31;67034;43.226;27.932;2024-03-25T06:23:22;8.67;78.72
77839;SHT31;67034;43.226;27.932;2024-03-25T06:25:50;8.67;78.51
77839;SHT31;67034;43.226;27.932;2024-03-25T06:28:16;8.57;78.46
77839;SHT31;67034;43.226;27.932;2024-03-25T06:30:42;8.55;78.58
77839;SHT31;67034;43.226;27.932;2024-03-25T06:33:26;8.54;78.62
77839;SHT31;67034;43.226;27.932;2024-03-25T06:36:11;8.47;78.72
77839;SHT31;67034;43.226;27.932;2024-03-25T06:38:36;8.45;78.71
77839;SHT31;67034;43.226;27.932;2024-03-25T06:41:03;8.50;78.84
77839;SHT31;67034;43.226;27.932;2024-03-25T06:43:29;8.47;78.12
77839;SHT31;67034;43.226;27.932;2024-03-25T06:45:54;8.41;78.01
77839;SHT31;67034;43.226;27.932;2024-03-25T06:48:20;8.33;78.30
77839;SHT31;67034;43.226;27.932;2024-03-25T06:50:52;8.37;78.55
77839;SHT31;67034;43.226;27.932;2024-03-25T06:53:18;8.40;78.48
77839;SHT31;67034;43.226;27.932;2024-03-25T06:55:50;8.40;78.40
77839;SHT31;67034;43.226;27.932;2024-03-25T06:58:18;8.24;78.13
77839;SHT31;67034;43.226;27.932;2024-03-25T07:00:44;8.09;78.02
77839;SHT31;67034;43.226;27.932;2024-03-25T07:03:09;7.85;78.11
77839;SHT31;67034;43.226;27.932;2024-03-25T07:05:35;7.72;78.86
77839;SHT31;67034;43.226;27.932;2024-03-25T07:08:01;7.64;79.01
77839;SHT31;67034;43.226;27.932;2024-03-25T07:10:26;7.54;79.13
77839;SHT31;67034;43.226;27.932;2024-03-25T07:12:52;7.44;79.51
77839;SHT31;67034;43.226;27.932;2024-03-25T07:15:19;7.41;80.03
77839;SHT31;67034;43.226;27.932;2024-03-25T07:17:45;7.38;80.22
77839;SHT31;67034;43.226;27.932;2024-03-25T07:20:11;7.31;80.11
77839;SHT31;67034;43.226;27.932;2024-03-25T07:22:36;7.27;80.20
77839;SHT31;67034;43.226;27.932;2024-03-25T07:25:02;7.20;80.04
77839;SHT31;67034;43.226;27.932;2024-03-25T07:27:27;7.27;80.63
77839;SHT31;67034;43.226;27.932;2024-03-25T07:29:53;7.28;80.86
77839;SHT31;67034;43.226;27.932;2024-03-25T07:32:20;7.37;80.85
77839;SHT31;67034;43.226;27.932;2024-03-25T07:34:46;7.48;80.38
77839;SHT31;67034;43.226;27.932;2024-03-25T07:37:11;7.47;79.00
77839;SHT31;67034;43.226;27.932;2024-03-25T07:39:37;7.48;78.49
77839;SHT31;67034;43.226;27.932;2024-03-25T07:42:03;7.51;78.23
77839;SHT31;67034;43.226;27.932;2024-03-25T07:44:28;7.62;77.80
77839;SHT31;67034;43.226;27.932;2024-03-25T07:46:54;7.65;76.97
77839;SHT31;67034;43.226;27.932;2024-03-25T07:49:22;7.64;76.55
77839;SHT31;67034;43.226;27.932;2024-03-25T07:51:48;7.68;76.62
77839;SHT31;67034;43.226;27.932;2024-03-25T07:54:13;7.71;76.22
77839;SHT31;67034;43.226;27.932;2024-03-25T07:56:42;7.69;75.74
77839;SHT31;67034;43.226;27.932;2024-03-25T07:59:08;7.72;75.77
77839;SHT31;67034;43.226;27.932;2024-03-25T08:01:34;7.79;75.63
77839;SHT31;67034;43.226;27.932;2024-03-25T08:03:59;7.83;75.59
77839;SHT31;67034;43.226;27.932;2024-03-25T08:06:26;7.85;75.31
77839;SHT31;67034;43.226;27.932;2024-03-25T08:08:52;7.50;74.34
77839;SHT31;67034;43.226;27.932;2024-03-25T08:11:17;7.28;75.45
77839;SHT31;67034;43.226;27.932;2024-03-25T08:13:43;7.00;75.33
77839;SHT31;67034;43.226;27.932;2024-03-25T08:16:09;6.85;75.70
77839;SHT31;67034;43.226;27.932;2024-03-25T08:18:34;6.77;75.94
77839;SHT31;67034;43.226;27.932;2024-03-25T08:21:00;6.71;76.45
77839;SHT31;67034;43.226;27.932;2024-03-25T08:23:27;6.68;76.67
77839;SHT31;67034;43.226;27.932;2024-03-25T08:25:53;6.59;76.93
77839;SHT31;67034;43.226;27.932;2024-03-25T08:28:18;6.64;77.06
77839;SHT31;67034;43.226;27.932;2024-03-25T08:30:44;6.55;76.89
77839;SHT31;67034;43.226;27.932;2024-03-25T08:33:10;6.52;77.19
77839;SHT31;67034;43.226;27.932;2024-03-25T08:35:36;6.58;77.46
77839;SHT31;67034;43.226;27.932;2024-03-25T08:38:03;6.61;77.71
77839;SHT31;67034;43.226;27.932;2024-03-25T08:40:30;6.66;77.68
77839;SHT31;67034;43.226;27.932;2024-03-25T08:42:56;6.75;77.48
77839;SHT31;67034;43.226;27.932;2024-03-25T08:45:23;6.86;77.21
77839;SHT31;67034;43.226;27.932;2024-03-25T08:47:49;6.85;77.22
77839;SHT31;67034;43.226;27.932;2024-03-25T08:50:14;6.92;76.88
77839;SHT31;67034;43.226;27.932;2024-03-25T08:52:40;7.07;76.85
77839;SHT31;67034;43.226;27.932;2024-03-25T08:55:05;7.10;76.57
77839;SHT31;67034;43.226;27.932;2024-03-25T08:57:33;7.20;76.40
77839;SHT31;67034;43.226;27.932;2024-03-25T08:59:58;7.18;75.88
77839;SHT31;67034;43.226;27.932;2024-03-25T09:02:24;7.16;75.46
77839;SHT31;67034;43.226;27.932;2024-03-25T09:04:50;7.23;75.49
77839;SHT31;67034;43.226;27.932;2024-03-25T09:07:17;7.34;75.63
77839;SHT31;67034;43.226;27.932;2024-03-25T09:09:42;7.41;75.62
77839;SHT31;67034;43.226;27.932;2024-03-25T09:12:27;7.32;74.75
77839;SHT31;67034;43.226;27.932;2024-03-25T09:14:53;7.21;74.47
77839;SHT31;67034;43.226;27.932;2024-03-25T09:17:19;7.20;74.65
77839;SHT31;67034;43.226;27.932;2024-03-25T09:19:45;7.28;75.16
77839;SHT31;67034;43.226;27.932;2024-03-25T09:22:10;7.23;74.75
77839;SHT31;67034;43.226;27.932;2024-03-25T09:24:36;7.16;74.89
77839;SHT31;67034;43.226;27.932;2024-03-25T09:27:02;7.07;74.81
77839;SHT31;67034;43.226;27.932;2024-03-25T09:29:28;7.07;74.96
77839;SHT31;67034;43.226;27.932;2024-03-25T09:31:55;7.07;74.98
77839;SHT31;67034;43.226;27.932;2024-03-25T09:34:21;7.18;75.20
77839;SHT31;67034;43.226;27.932;2024-03-25T09:36:46;7.27;74.45
77839;SHT31;67034;43.226;27.932;2024-03-25T09:39:12;7.26;73.70
77839;SHT31;67034;43.226;27.932;2024-03-25T09:41:41;7.24;73.93
77839;SHT31;67034;43.226;27.932;2024-03-25T09:44:08;7.31;73.84
77839;SHT31;67034;43.226;27.932;2024-03-25T09:46:36;7.40;73.59
77839;SHT31;67034;43.226;27.932;2024-03-25T09:49:03;7.50;73.33
77839;SHT31;67034;43.226;27.932;2024-03-25T09:51:31;7.44;72.84
77839;SHT31;67034;43.226;27.932;2024-03-25T09:53:56;7.54;73.56
77839;SHT31;67034;43.226;27.932;2024-03-25T09:56:22;7.56;72.75
77839;SHT31;67034;43.226;27.932;2024-03-25T09:58:48;7.61;72.20
77839;SHT31;67034;43.226;27.932;2024-03-25T10:01:14;7.62;71.63
77839;SHT31;67034;43.226;27.932;2024-03-25T10:03:40;7.62;71.65
77839;SHT31;67034;43.226;27.932;2024-03-25T10:06:07;7.79;72.03
77839;SHT31;67034;43.226;27.932;2024-03-25T10:08:35;8.00;71.42
77839;SHT31;67034;43.226;27.932;2024-03-25T10:11:00;8.20;71.04
77839;SHT31;67034;43.226;27.932;2024-03-25T10:13:27;8.27;70.34
77839;SHT31;67034;43.226;27.932;2024-03-25T10:15:54;8.36;69.81
77839;SHT31;67034;43.226;27.932;2024-03-25T10:18:20;8.47;69.71
77839;SHT31;67034;43.226;27.932;2024-03-25T10:20:48;8.53;69.00
77839;SHT31;67034;43.226;27.932;2024-03-25T10:23:15;8.50;68.79
77839;SHT31;67034;43.226;27.932;2024-03-25T10:25:47;8.61;69.17
77839;SHT31;67034;43.226;27.932;2024-03-25T10:28:13;8.63;68.56
77839;SHT31;67034;43.226;27.932;2024-03-25T10:30:40;8.68;68.60
77839;SHT31;67034;43.226;27.932;2024-03-25T10:33:07;8.67;68.37
77839;SHT31;67034;43.226;27.932;2024-03-25T10:35:34;8.84;67.98
77839;SHT31;67034;43.226;27.932;2024-03-25T10:38:00;9.03;68.04
77839;SHT31;67034;43.226;27.932;2024-03-25T10:40:29;9.27;67.35
77839;SHT31;67034;43.226;27.932;2024-03-25T10:43:01;9.43;66.32
77839;SHT31;67034;43.226;27.932;2024-03-25T10:45:28;9.47;65.74
77839;SHT31;67034;43.226;27.932;2024-03-25T10:48:09;9.43;65.51
77839;SHT31;67034;43.226;27.932;2024-03-25T10:50:39;9.40;66.14
77839;SHT31;67034;43.226;27.932;2024-03-25T10:53:07;9.40;65.85
77839;SHT31;67034;43.226;27.932;2024-03-25T10:55:35;9.37;66.34
77839;SHT31;67034;43.226;27.932;2024-03-25T10:58:02;9.29;66.31
77839;SHT31;67034;43.226;27.932;2024-03-25T11:00:29;8.96;65.82
77839;SHT31;67034;43.226;27.932;2024-03-25T11:02:55;8.81;66.41
77839;SHT31;67034;43.226;27.932;2024-03-25T11:05:22;8.79;66.68
77839;SHT31;67034;43.226;27.932;2024-03-25T11:07:48;8.86;67.00
77839;SHT31;67034;43.226;27.932;2024-03-25T11:10:15;8.99;66.55
77839;SHT31;67034;43.226;27.932;2024-03-25T11:12:42;8.96;66.01
77839;SHT31;67034;43.226;27.932;2024-03-25T11:15:09;9.03;66.36
77839;SHT31;67034;43.226;27.932;2024-03-25T11:17:35;9.15;66.45
77839;SHT31;67034;43.226;27.932;2024-03-25T11:20:09;9.27;66.41
77839;SHT31;67034;43.226;27.932;2024-03-25T11:22:35;9.63;65.81
77839;SHT31;67034;43.226;27.932;2024-03-25T11:25:08;9.80;65.26
77839;SHT31;67034;43.226;27.932;2024-03-25T11:27:37;9.61;65.28
77839;SHT31;67034;43.226;27.932;2024-03-25T11:30:05;9.55;65.77
77839;SHT31;67034;43.226;27.932;2024-03-25T11:32:45;9.64;65.78
77839;SHT31;67034;43.226;27.932;2024-03-25T11:35:12;9.63;65.16
77839;SHT31;67034;43.226;27.932;2024-03-25T11:37:40;9.61;64.76
77839;SHT31;67034;43.226;27.932;2024-03-25T11:40:07;9.60;64.74
77839;SHT31;67034;43.226;27.932;2024-03-25T11:42:34;9.71;64.26
77839;SHT31;67034;43.226;27.932;2024-03-25T11:45:01;9.75;64.10
77839;SHT31;67034;43.226;27.932;2024-03-25T11:47:29;9.87;64.10
77839;SHT31;67034;43.226;27.932;2024-03-25T11:49:55;9.90;63.80
77839;SHT31;67034;43.226;27.932;2024-03-25T11:52:20;9.81;63.77
77839;SHT31;67034;43.226;27.932;2024-03-25T11:54:54;9.94;64.23
77839;SHT31;67034;43.226;27.932;2024-03-25T11:57:20;10.29;63.80
77839;SHT31;67034;43.226;27.932;2024-03-25T11:59:46;10.50;63.13
77839;SHT31;67034;43.226;27.932;2024-03-25T12:02:14;10.70;62.42
77839;SHT31;67034;43.226;27.932;2024-03-25T12:04:44;10.77;62.40
77839;SHT31;67034;43.226;27.932;2024-03-25T12:07:13;11.07;61.61
77839;SHT31;67034;43.226;27.932;2024-03-25T12:09:38;11.51;61.24
77839;SHT31;67034;43.226;27.932;2024-03-25T12:12:23;11.72;59.55
77839;SHT31;67034;43.226;27.932;2024-03-25T12:14:49;11.51;59.39
77839;SHT31;67034;43.226;27.932;2024-03-25T12:17:15;11.42;59.61
77839;SHT31;67034;43.226;27.932;2024-03-25T12:19:42;11.38;60.10
77839;SHT31;67034;43.226;27.932;2024-03-25T12:22:08;11.31;60.07
77839;SHT31;67034;43.226;27.932;2024-03-25T12:24:34;11.08;60.23
77839;SHT31;67034;43.226;27.932;2024-03-25T12:27:00;11.14;60.81
77839;SHT31;67034;43.226;27.932;2024-03-25T12:29:26;11.19;60.54
77839;SHT31;67034;43.226;27.932;2024-03-25T12:31:55;11.22;60.79
77839;SHT31;67034;43.226;27.932;2024-03-25T12:34:21;11.10;59.90
77839;SHT31;67034;43.226;27.932;2024-03-25T12:36:49;10.80;61.47
77839;SHT31;67034;43.226;27.932;2024-03-25T12:39:18;10.43;63.04
77839;SHT31;67034;43.226;27.932;2024-03-25T12:41:44;10.13;63.93
77839;SHT31;67034;43.226;27.932;2024-03-25T12:44:12;9.97;65.97
77839;SHT31;67034;43.226;27.932;2024-03-25T12:46:38;10.12;67.25
77839;SHT31;67034;43.226;27.932;2024-03-25T12:49:04;10.46;66.58
77839;SHT31;67034;43.226;27.932;2024-03-25T12:51:30;10.63;65.75
77839;SHT31;67034;43.226;27.932;2024-03-25T12:53:58;10.76;65.41
77839;SHT31;67034;43.226;27.932;2024-03-25T12:56:24;10.85;64.24
77839;SHT31;67034;43.226;27.932;2024-03-25T12:58:50;11.22;63.28
77839;SHT31;67034;43.226;27.932;2024-03-25T13:01:16;11.55;61.86
77839;SHT31;67034;43.226;27.932;2024-03-25T13:03:41;11.77;60.00
77839;SHT31;67034;43.226;27.932;2024-03-25T13:06:07;11.85;58.71
77839;SHT31;67034;43.226;27.932;2024-03-25T13:08:33;11.97;58.01
77839;SHT31;67034;43.226;27.932;2024-03-25T13:11:08;12.20;57.81
77839;SHT31;67034;43.226;27.932;2024-03-25T13:13:34;12.23;57.68
77839;SHT31;67034;43.226;27.932;2024-03-25T13:15:59;11.90;56.83
77839;SHT31;67034;43.226;27.932;2024-03-25T13:18:25;11.49;56.86
77839;SHT31;67034;43.226;27.932;2024-03-25T13:20:51;11.07;58.18
77839;SHT31;67034;43.226;27.932;2024-03-25T13:23:17;10.84;59.16
77839;SHT31;67034;43.226;27.932;2024-03-25T13:25:42;10.76;59.65
77839;SHT31;67034;43.226;27.932;2024-03-25T13:28:09;10.66;59.57
77839;SHT31;67034;43.226;27.932;2024-03-25T13:30:35;10.39;62.42
77839;SHT31;67034;43.226;27.932;2024-03-25T13:33:01;10.15;64.12
77839;SHT31;67034;43.226;27.932;2024-03-25T13:35:27;9.82;65.44
77839;SHT31;67034;43.226;27.932;2024-03-25T13:37:53;9.65;66.27
77839;SHT31;67034;43.226;27.932;2024-03-25T13:40:18;9.58;66.70
77839;SHT31;67034;43.226;27.932;2024-03-25T13:42:44;9.46;66.94
77839;SHT31;67034;43.226;27.932;2024-03-25T13:45:12;9.53;66.86
77839;SHT31;67034;43.226;27.932;2024-03-25T13:47:37;9.67;66.49
77839;SHT31;67034;43.226;27.932;2024-03-25T13:50:04;9.95;66.14
77839;SHT31;67034;43.226;27.932;2024-03-25T13:52:30;10.09;65.34
77839;SHT31;67034;43.226;27.932;2024-03-25T13:54:56;10.39;63.90
77839;SHT31;67034;43.226;27.932;2024-03-25T13:57:22;10.81;63.05
77839;SHT31;67034;43.226;27.932;2024-03-25T13:59:48;11.17;61.86
77839;SHT31;67034;43.226;27.932;2024-03-25T14:02:17;11.70;60.15
77839;SHT31;67034;43.226;27.932;2024-03-25T14:04:42;11.82;58.25
77839;SHT31;67034;43.226;27.932;2024-03-25T14:07:08;11.75;58.27
77839;SHT31;67034;43.226;27.932;2024-03-25T14:09:34;12.08;58.37
77839;SHT31;67034;43.226;27.932;2024-03-25T14:12:00;12.31;56.82
77839;SHT31;67034;43.226;27.932;2024-03-25T14:14:26;12.55;55.46
77839;SHT31;67034;43.226;27.932;2024-03-25T14:16:51;12.93;55.16
77839;SHT31;67034;43.226;27.932;2024-03-25T14:19:19;13.22;51.17
77839;SHT31;67034;43.226;27.932;2024-03-25T14:21:44;13.55;50.13
77839;SHT31;67034;43.226;27.932;2024-03-25T14:24:10;13.75;49.26
77839;SHT31;67034;43.226;27.932;2024-03-25T14:26:36;14.13;48.67
77839;SHT31;67034;43.226;27.932;2024-03-25T14:29:02;14.43;47.00
77839;SHT31;67034;43.226;27.932;2024-03-25T14:31:28;14.57;46.58
77839;SHT31;67034;43.226;27.932;2024-03-25T14:33:54;14.81;46.63
77839;SHT31;67034;43.226;27.932;2024-03-25T14:36:22;15.07;44.66
77839;SHT31;67034;43.226;27.932;2024-03-25T14:38:48;15.50;44.92
77839;SHT31;67034;43.226;27.932;2024-03-25T14:41:18;15.77;45.06
77839;SHT31;67034;43.226;27.932;2024-03-25T14:43:44;16.18;43.67
77839;SHT31;67034;43.226;27.932;2024-03-25T14:46:10;16.26;43.41
77839;SHT31;67034;43.226;27.932;2024-03-25T14:48:36;14.91;44.81
77839;SHT31;67034;43.226;27.932;2024-03-25T14:51:02;13.71;47.25
77839;SHT31;67034;43.226;27.932;2024-03-25T14:53:29;13.12;48.56
77839;SHT31;67034;43.226;27.932;2024-03-25T14:55:55;12.71;49.67
77839;SHT31;67034;43.226;27.932;2024-03-25T14:58:20;12.82;49.64
77839;SHT31;67034;43.226;27.932;2024-03-25T15:00:46;12.59;50.35
77839;SHT31;67034;43.226;27.932;2024-03-25T15:03:12;12.45;50.56
77839;SHT31;67034;43.226;27.932;2024-03-25T15:05:38;12.28;51.11
77839;SHT31;67034;43.226;27.932;2024-03-25T15:08:04;12.10;51.38
77839;SHT31;67034;43.226;27.932;2024-03-25T15:10:35;12.01;51.84
77839;SHT31;67034;43.226;27.932;2024-03-25T15:13:00;11.96;51.94
77839;SHT31;67034;43.226;27.932;2024-03-25T15:15:26;11.87;51.93
77839;SHT31;67034;43.226;27.932;2024-03-25T15:17:52;11.77;52.46
77839;SHT31;67034;43.226;27.932;2024-03-25T15:20:18;11.66;53.18
77839;SHT31;67034;43.226;27.932;2024-03-25T15:22:44;11.83;53.18